sensor_id;sensor_type;location;lat;lon;timestamp;pressure;altitude;pressure_sealevel;temperature;humidity
49979;BME280;35869;50.990;6.962;2023-03-14T00:03:43;98870.09;;;10.63;92.71
49979;BME280;35869;50.990;6.962;2023-03-14T00:08:44;98870.09;;;10.63;92.57
49979;BME280;35869;50.990;6.962;2023-03-14T00:13:49;98878.09;;;10.60;92.95
49979;BME280;35869;50.990;6.962;2023-03-14T00:18:49;98923.22;;;10.59;92.83
49979;BME280;35869;50.990;6.962;2023-03-14T00:23:49;98939.25;;;10.53;93.36
49979;BME280;35869;50.990;6.962;2023-03-14T00:28:53;98929.97;;;10.62;92.34
49979;BME280;35869;50.990;6.962;2023-03-14T00:33:53;98940.44;;;10.60;93.44
49979;BME280;35869;50.990;6.962;2023-03-14T00:38:54;98919.63;;;10.49;93.92
49979;BME280;35869;50.990;6.962;2023-03-14T00:43:54;98915.66;;;10.56;93.13
49979;BME280;35869;50.990;6.962;2023-03-14T00:48:54;98914.22;;;10.52;94.53
49979;BME280;35869;50.990;6.962;2023-03-14T00:53:54;98914.88;;;10.43;94.17
49979;BME280;35869;50.990;6.962;2023-03-14T00:58:55;98925.88;;;10.47;95.93
49979;BME280;35869;50.990;6.962;2023-03-14T01:03:56;98935.19;;;10.49;96.92
49979;BME280;35869;50.990;6.962;2023-03-14T01:08:57;98949.94;;;10.61;98.06
49979;BME280;35869;50.990;6.962;2023-03-14T01:13:57;98955.97;;;10.49;98.47
49979;BME280;35869;50.990;6.962;2023-03-14T01:18:58;98982.56;;;10.53;99.50
49979;BME280;35869;50.990;6.962;2023-03-14T01:24:00;98977.06;;;10.21;100.00
49979;BME280;35869;50.990;6.962;2023-03-14T01:29:00;98939.78;;;10.22;100.00
49979;BME280;35869;50.990;6.962;2023-03-14T01:34:01;98926.28;;;10.17;100.00
49979;BME280;35869;50.990;6.962;2023-03-14T01:39:02;98925.75;;;10.24;100.00
49979;BME280;35869;50.990;6.962;2023-03-14T01:44:02;98926.66;;;9.99;100.00
49979;BME280;35869;50.990;6.962;2023-03-14T01:54:14;98915.84;;;10.05;100.00
49979;BME280;35869;50.990;6.962;2023-03-14T01:59:16;98915.88;;;9.93;100.00
49979;BME280;35869;50.990;6.962;2023-03-14T02:04:17;98882.47;;;9.88;100.00
49979;BME280;35869;50.990;6.962;2023-03-14T02:09:20;98901.06;;;9.82;100.00
49979;BME280;35869;50.990;6.962;2023-03-14T02:14:30;98922.53;;;9.84;100.00
49979;BME280;35869;50.990;6.962;2023-03-14T02:19:47;98914.22;;;9.79;100.00
49979;BME280;35869;50.990;6.962;2023-03-14T02:25:09;98911.59;;;9.68;100.00
49979;BME280;35869;50.990;6.962;2023-03-14T02:30:15;98918.94;;;9.74;100.00
49979;BME280;35869;50.990;6.962;2023-03-14T02:35:20;98907.06;;;9.82;100.00
49979;BME280;35869;50.990;6.962;2023-03-14T02:40:21;98896.84;;;9.68;100.00
49979;BME280;35869;50.990;6.962;2023-03-14T02:50:25;98885.22;;;9.74;100.00
49979;BME280;35869;50.990;6.962;2023-03-14T02:55:26;98887.88;;;9.72;100.00
49979;BME280;35869;50.990;6.962;2023-03-14T03:00:26;98875.97;;;9.70;100.00
49979;BME280;35869;50.990;6.962;2023-03-14T03:05:27;98865.09;;;9.65;100.00
49979;BME280;35869;50.990;6.962;2023-03-14T03:10:28;98860.13;;;9.61;100.00
49979;BME280;35869;50.990;6.962;2023-03-14T03:15:28;98851.72;;;9.58;100.00
49979;BME280;35869;50.990;6.962;2023-03-14T03:20:29;98848.41;;;9.56;100.00
49979;BME280;35869;50.990;6.962;2023-03-14T03:25:29;98840.31;;;9.48;100.00
49979;BME280;35869;50.990;6.962;2023-03-14T03:30:30;98831.53;;;9.50;100.00
49979;BME280;35869;50.990;6.962;2023-03-14T03:35:30;98833.88;;;9.53;100.00
49979;BME280;35869;50.990;6.962;2023-03-14T03:40:30;98826.34;;;9.50;100.00
49979;BME280;35869;50.990;6.962;2023-03-14T03:45:30;98828.00;;;9.51;100.00
49979;BME280;35869;50.990;6.962;2023-03-14T03:50:31;98839.63;;;9.46;100.00
49979;BME280;35869;50.990;6.962;2023-03-14T03:55:31;98824.88;;;9.46;100.00
49979;BME280;35869;50.990;6.962;2023-03-14T04:00:31;98823.84;;;9.36;100.00
49979;BME280;35869;50.990;6.962;2023-03-14T04:05:31;98828.09;;;9.37;100.00
49979;BME280;35869;50.990;6.962;2023-03-14T04:10:35;98827.41;;;9.35;100.00
49979;BME280;35869;50.990;6.962;2023-03-14T04:15:35;98829.03;;;9.36;100.00
49979;BME280;35869;50.990;6.962;2023-03-14T04:20:36;98817.03;;;9.35;100.00
49979;BME280;35869;50.990;6.962;2023-03-14T04:25:36;98815.06;;;9.39;100.00
49979;BME280;35869;50.990;6.962;2023-03-14T04:30:36;98813.72;;;9.33;100.00
49979;BME280;35869;50.990;6.962;2023-03-14T04:35:36;98813.28;;;9.39;100.00
49979;BME280;35869;50.990;6.962;2023-03-14T04:40:40;98805.50;;;9.39;100.00
49979;BME280;35869;50.990;6.962;2023-03-14T04:45:41;98812.22;;;9.42;100.00
49979;BME280;35869;50.990;6.962;2023-03-14T04:50:42;98784.53;;;9.42;100.00
49979;BME280;35869;50.990;6.962;2023-03-14T04:55:46;98782.38;;;9.36;100.00
49979;BME280;35869;50.990;6.962;2023-03-14T05:00:47;98773.25;;;9.30;100.00
49979;BME280;35869;50.990;6.962;2023-03-14T05:05:48;98761.88;;;9.33;100.00
49979;BME280;35869;50.990;6.962;2023-03-14T05:10:53;98757.50;;;9.33;100.00
49979;BME280;35869;50.990;6.962;2023-03-14T05:15:53;98745.50;;;9.32;100.00
49979;BME280;35869;50.990;6.962;2023-03-14T05:20:53;98748.56;;;9.38;100.00
49979;BME280;35869;50.990;6.962;2023-03-14T05:25:53;98740.50;;;9.29;100.00
49979;BME280;35869;50.990;6.962;2023-03-14T05:30:54;98740.47;;;9.42;100.00
49979;BME280;35869;50.990;6.962;2023-03-14T05:35:54;98738.09;;;9.39;100.00
49979;BME280;35869;50.990;6.962;2023-03-14T05:40:54;98745.06;;;9.39;100.00
49979;BME280;35869;50.990;6.962;2023-03-14T05:45:54;98742.03;;;9.32;100.00
49979;BME280;35869;50.990;6.962;2023-03-14T05:50:55;98731.41;;;9.24;100.00
49979;BME280;35869;50.990;6.962;2023-03-14T05:55:56;98726.84;;;9.27;100.00
49979;BME280;35869;50.990;6.962;2023-03-14T06:00:56;98732.19;;;9.37;100.00
49979;BME280;35869;50.990;6.962;2023-03-14T06:05:57;98744.31;;;9.37;100.00
49979;BME280;35869;50.990;6.962;2023-03-14T06:10:57;98726.56;;;9.43;100.00
49979;BME280;35869;50.990;6.962;2023-03-14T06:15:57;98729.31;;;9.29;100.00
49979;BME280;35869;50.990;6.962;2023-03-14T06:20:58;98724.41;;;9.37;100.00
49979;BME280;35869;50.990;6.962;2023-03-14T06:25:58;98721.38;;;9.43;100.00
49979;BME280;35869;50.990;6.962;2023-03-14T06:30:59;98718.50;;;9.35;100.00
49979;BME280;35869;50.990;6.962;2023-03-14T06:35:59;98718.72;;;9.32;100.00
49979;BME280;35869;50.990;6.962;2023-03-14T06:41:06;98725.97;;;9.40;100.00
49979;BME280;35869;50.990;6.962;2023-03-14T06:46:07;98723.25;;;9.41;100.00
49979;BME280;35869;50.990;6.962;2023-03-14T06:51:08;98721.38;;;9.43;100.00
49979;BME280;35869;50.990;6.962;2023-03-14T06:56:08;98721.81;;;9.37;100.00
49979;BME280;35869;50.990;6.962;2023-03-14T07:01:24;98725.22;;;9.38;100.00
49979;BME280;35869;50.990;6.962;2023-03-14T07:06:25;98722.53;;;9.39;100.00
49979;BME280;35869;50.990;6.962;2023-03-14T07:11:25;98739.00;;;9.51;100.00
49979;BME280;35869;50.990;6.962;2023-03-14T07:16:26;98742.78;;;9.58;100.00
49979;BME280;35869;50.990;6.962;2023-03-14T07:21:26;98748.81;;;9.58;100.00
49979;BME280;35869;50.990;6.962;2023-03-14T07:26:26;98756.16;;;9.65;100.00
49979;BME280;35869;50.990;6.962;2023-03-14T07:31:27;98757.91;;;9.64;100.00
49979;BME280;35869;50.990;6.962;2023-03-14T07:36:27;98773.09;;;9.57;100.00
49979;BME280;35869;50.990;6.962;2023-03-14T07:41:27;98773.31;;;9.78;100.00
49979;BME280;35869;50.990;6.962;2023-03-14T07:46:27;98776.19;;;9.86;100.00
49979;BME280;35869;50.990;6.962;2023-03-14T07:51:28;98779.50;;;9.88;100.00
49979;BME280;35869;50.990;6.962;2023-03-14T07:56:28;98780.69;;;9.96;100.00
49979;BME280;35869;50.990;6.962;2023-03-14T08:01:28;98775.28;;;9.99;100.00
49979;BME280;35869;50.990;6.962;2023-03-14T08:06:28;98787.66;;;9.95;100.00
49979;BME280;35869;50.990;6.962;2023-03-14T08:11:28;98792.31;;;10.03;100.00
49979;BME280;35869;50.990;6.962;2023-03-14T08:16:28;98788.09;;;10.13;100.00
49979;BME280;35869;50.990;6.962;2023-03-14T08:21:29;98800.72;;;10.18;100.00
49979;BME280;35869;50.990;6.962;2023-03-14T08:26:29;98801.50;;;10.31;100.00
49979;BME280;35869;50.990;6.962;2023-03-14T08:31:30;98793.63;;;10.32;100.00
49979;BME280;35869;50.990;6.962;2023-03-14T08:36:30;98793.53;;;10.45;100.00
49979;BME280;35869;50.990;6.962;2023-03-14T08:41:30;98795.41;;;10.43;100.00
49979;BME280;35869;50.990;6.962;2023-03-14T08:46:30;98802.66;;;10.51;100.00
49979;BME280;35869;50.990;6.962;2023-03-14T08:51:31;98810.34;;;10.63;100.00
49979;BME280;35869;50.990;6.962;2023-03-14T08:56:31;98811.63;;;10.58;100.00
49979;BME280;35869;50.990;6.962;2023-03-14T09:01:31;98828.41;;;10.65;100.00
49979;BME280;35869;50.990;6.962;2023-03-14T09:06:32;98842.09;;;10.67;100.00
49979;BME280;35869;50.990;6.962;2023-03-14T09:11:32;98845.03;;;10.51;100.00
49979;BME280;35869;50.990;6.962;2023-03-14T09:16:33;98846.19;;;10.47;100.00
49979;BME280;35869;50.990;6.962;2023-03-14T09:21:33;98864.13;;;10.39;100.00
49979;BME280;35869;50.990;6.962;2023-03-14T09:26:34;98866.66;;;10.28;100.00
49979;BME280;35869;50.990;6.962;2023-03-14T09:31:34;98869.31;;;10.39;100.00
49979;BME280;35869;50.990;6.962;2023-03-14T09:36:34;98906.16;;;10.44;100.00
49979;BME280;35869;50.990;6.962;2023-03-14T09:41:37;98951.34;;;10.05;100.00
49979;BME280;35869;50.990;6.962;2023-03-14T09:46:41;98988.94;;;9.99;100.00
49979;BME280;35869;50.990;6.962;2023-03-14T09:51:44;99015.03;;;9.85;100.00
49979;BME280;35869;50.990;6.962;2023-03-14T09:56:47;99047.50;;;9.65;100.00
49979;BME280;35869;50.990;6.962;2023-03-14T10:01:48;99050.06;;;9.52;100.00
49979;BME280;35869;50.990;6.962;2023-03-14T10:06:48;99082.94;;;9.39;100.00
49979;BME280;35869;50.990;6.962;2023-03-14T10:11:48;99102.63;;;9.29;100.00
49979;BME280;35869;50.990;6.962;2023-03-14T10:16:49;99116.31;;;9.31;100.00
49979;BME280;35869;50.990;6.962;2023-03-14T10:21:51;99132.41;;;9.36;100.00
49979;BME280;35869;50.990;6.962;2023-03-14T10:26:54;99155.63;;;9.11;100.00
49979;BME280;35869;50.990;6.962;2023-03-14T10:32:02;99180.13;;;8.92;100.00
49979;BME280;35869;50.990;6.962;2023-03-14T10:37:07;99213.72;;;8.79;100.00
49979;BME280;35869;50.990;6.962;2023-03-14T10:47:23;99241.38;;;8.65;100.00
49979;BME280;35869;50.990;6.962;2023-03-14T10:52:27;99254.88;;;8.70;100.00
49979;BME280;35869;50.990;6.962;2023-03-14T10:57:28;99266.34;;;8.66;100.00
49979;BME280;35869;50.990;6.962;2023-03-14T11:07:29;99297.78;;;8.60;100.00
49979;BME280;35869;50.990;6.962;2023-03-14T11:23:35;99297.47;;;8.50;100.00
49979;BME280;35869;50.990;6.962;2023-03-14T11:28:41;99323.72;;;8.74;100.00
49979;BME280;35869;50.990;6.962;2023-03-14T11:34:01;99339.06;;;8.77;100.00
49979;BME280;35869;50.990;6.962;2023-03-14T11:39:15;99405.16;;;8.54;100.00
49979;BME280;35869;50.990;6.962;2023-03-14T11:44:22;99409.81;;;8.32;100.00
49979;BME280;35869;50.990;6.962;2023-03-14T11:49:40;99410.84;;;8.29;100.00
49979;BME280;35869;50.990;6.962;2023-03-14T11:54:53;99430.63;;;8.30;100.00
49979;BME280;35869;50.990;6.962;2023-03-14T12:00:02;99438.59;;;8.27;100.00
49979;BME280;35869;50.990;6.962;2023-03-14T12:10:22;99500.44;;;8.16;100.00
49979;BME280;35869;50.990;6.962;2023-03-14T12:15:23;99517.19;;;8.09;100.00
49979;BME280;35869;50.990;6.962;2023-03-14T12:20:24;99524.72;;;7.97;100.00
49979;BME280;35869;50.990;6.962;2023-03-14T12:25:27;99549.06;;;7.93;100.00
49979;BME280;35869;50.990;6.962;2023-03-14T12:30:36;99556.75;;;7.95;100.00
49979;BME280;35869;50.990;6.962;2023-03-14T12:35:48;99581.19;;;7.89;100.00
49979;BME280;35869;50.990;6.962;2023-03-14T12:40:58;99607.06;;;7.89;100.00
49979;BME280;35869;50.990;6.962;2023-03-14T12:46:25;99628.69;;;7.71;100.00
49979;BME280;35869;50.990;6.962;2023-03-14T12:51:40;99646.09;;;7.67;100.00
49979;BME280;35869;50.990;6.962;2023-03-14T13:12:55;99693.63;;;7.65;100.00
49979;BME280;35869;50.990;6.962;2023-03-14T13:18:02;99705.53;;;7.50;100.00
49979;BME280;35869;50.990;6.962;2023-03-14T13:23:02;99711.13;;;7.60;100.00
49979;BME280;35869;50.990;6.962;2023-03-14T13:28:03;99723.09;;;7.43;100.00
49979;BME280;35869;50.990;6.962;2023-03-14T13:33:04;99742.47;;;7.35;100.00
49979;BME280;35869;50.990;6.962;2023-03-14T13:38:04;99767.78;;;7.28;100.00
49979;BME280;35869;50.990;6.962;2023-03-14T13:43:24;99801.41;;;7.08;100.00
49979;BME280;35869;50.990;6.962;2023-03-14T13:48:27;99821.53;;;7.20;100.00
49979;BME280;35869;50.990;6.962;2023-03-14T13:53:28;99818.81;;;7.23;100.00
49979;BME280;35869;50.990;6.962;2023-03-14T13:58:31;99833.41;;;7.24;100.00
49979;BME280;35869;50.990;6.962;2023-03-14T14:03:34;99834.19;;;7.26;99.48
49979;BME280;35869;50.990;6.962;2023-03-14T14:08:40;99844.75;;;7.21;100.00
49979;BME280;35869;50.990;6.962;2023-03-14T14:13:40;99854.22;;;7.21;100.00
49979;BME280;35869;50.990;6.962;2023-03-14T14:18:41;99872.81;;;7.29;100.00
49979;BME280;35869;50.990;6.962;2023-03-14T14:23:42;99889.63;;;7.19;100.00
49979;BME280;35869;50.990;6.962;2023-03-14T14:28:42;99907.88;;;7.16;100.00
49979;BME280;35869;50.990;6.962;2023-03-14T14:33:56;99910.50;;;7.14;98.85
49979;BME280;35869;50.990;6.962;2023-03-14T14:38:59;99937.91;;;7.18;98.37
49979;BME280;35869;50.990;6.962;2023-03-14T14:44:02;99941.97;;;7.24;100.00
49979;BME280;35869;50.990;6.962;2023-03-14T14:49:10;99953.22;;;7.23;100.00
49979;BME280;35869;50.990;6.962;2023-03-14T14:54:15;99972.78;;;7.29;100.00
49979;BME280;35869;50.990;6.962;2023-03-14T14:59:25;99984.63;;;7.34;100.00
49979;BME280;35869;50.990;6.962;2023-03-14T15:04:26;99998.19;;;7.39;97.44
49979;BME280;35869;50.990;6.962;2023-03-14T15:09:26;100008.78;;;7.33;100.00
49979;BME280;35869;50.990;6.962;2023-03-14T15:14:26;100008.78;;;7.33;100.00
49979;BME280;35869;50.990;6.962;2023-03-14T15:19:27;100028.66;;;7.31;94.88
49979;BME280;35869;50.990;6.962;2023-03-14T15:24:27;100025.97;;;7.34;96.27
49979;BME280;35869;50.990;6.962;2023-03-14T15:29:42;100051.53;;;7.20;98.82
49979;BME280;35869;50.990;6.962;2023-03-14T15:34:42;100063.69;;;7.18;98.67
49979;BME280;35869;50.990;6.962;2023-03-14T15:39:43;100072.16;;;7.21;98.90
49979;BME280;35869;50.990;6.962;2023-03-14T15:44:43;100089.09;;;7.29;97.22
49979;BME280;35869;50.990;6.962;2023-03-14T15:49:43;100097.63;;;7.31;93.96
49979;BME280;35869;50.990;6.962;2023-03-14T15:54:44;100105.38;;;7.09;96.45
49979;BME280;35869;50.990;6.962;2023-03-14T15:59:44;100134.06;;;7.25;95.65
49979;BME280;35869;50.990;6.962;2023-03-14T16:04:44;100148.97;;;6.96;94.03
49979;BME280;35869;50.990;6.962;2023-03-14T16:09:44;100156.47;;;7.02;90.86
49979;BME280;35869;50.990;6.962;2023-03-14T16:14:47;100168.97;;;6.91;88.93
49979;BME280;35869;50.990;6.962;2023-03-14T16:19:47;100175.63;;;6.97;86.99
49979;BME280;35869;50.990;6.962;2023-03-14T16:24:47;100178.59;;;6.87;86.35
49979;BME280;35869;50.990;6.962;2023-03-14T16:29:47;100199.50;;;6.80;85.50
49979;BME280;35869;50.990;6.962;2023-03-14T16:34:48;100209.00;;;6.79;86.06
49979;BME280;35869;50.990;6.962;2023-03-14T16:39:49;100224.28;;;6.85;87.94
49979;BME280;35869;50.990;6.962;2023-03-14T16:44:50;100231.47;;;6.77;84.55
49979;BME280;35869;50.990;6.962;2023-03-14T16:49:50;100247.50;;;6.62;85.33
49979;BME280;35869;50.990;6.962;2023-03-14T16:54:50;100266.91;;;6.49;85.71
49979;BME280;35869;50.990;6.962;2023-03-14T16:59:50;100279.34;;;6.37;85.26
49979;BME280;35869;50.990;6.962;2023-03-14T17:04:50;100289.47;;;6.44;83.14
49979;BME280;35869;50.990;6.962;2023-03-14T17:09:51;100302.28;;;6.47;80.43
49979;BME280;35869;50.990;6.962;2023-03-14T17:14:51;100309.94;;;6.23;82.10
49979;BME280;35869;50.990;6.962;2023-03-14T17:19:51;100334.06;;;6.22;82.03
49979;BME280;35869;50.990;6.962;2023-03-14T17:24:51;100349.56;;;6.22;78.16
49979;BME280;35869;50.990;6.962;2023-03-14T17:29:52;100357.63;;;6.11;79.56
49979;BME280;35869;50.990;6.962;2023-03-14T17:34:52;100376.28;;;5.92;78.05
49979;BME280;35869;50.990;6.962;2023-03-14T17:39:52;100385.91;;;5.86;81.08
49979;BME280;35869;50.990;6.962;2023-03-14T17:44:58;100405.00;;;5.79;84.17
49979;BME280;35869;50.990;6.962;2023-03-14T17:49:58;100416.22;;;6.08;78.97
49979;BME280;35869;50.990;6.962;2023-03-14T17:55:00;100426.28;;;5.86;81.18
49979;BME280;35869;50.990;6.962;2023-03-14T18:00:01;100445.28;;;5.83;81.21
49979;BME280;35869;50.990;6.962;2023-03-14T18:05:01;100450.53;;;5.80;82.79
49979;BME280;35869;50.990;6.962;2023-03-14T18:10:03;100462.97;;;5.66;79.67
49979;BME280;35869;50.990;6.962;2023-03-14T18:15:04;100474.00;;;5.71;83.45
49979;BME280;35869;50.990;6.962;2023-03-14T18:20:05;100489.09;;;5.85;83.34
49979;BME280;35869;50.990;6.962;2023-03-14T18:25:07;100494.72;;;5.68;83.27
49979;BME280;35869;50.990;6.962;2023-03-14T18:30:08;100517.34;;;5.57;79.74
49979;BME280;35869;50.990;6.962;2023-03-14T18:35:08;100536.06;;;5.65;77.37
49979;BME280;35869;50.990;6.962;2023-03-14T18:40:09;100543.44;;;5.46;80.69
49979;BME280;35869;50.990;6.962;2023-03-14T18:45:10;100562.00;;;5.59;81.46
49979;BME280;35869;50.990;6.962;2023-03-14T18:50:11;100579.53;;;5.45;81.65
49979;BME280;35869;50.990;6.962;2023-03-14T18:55:11;100577.78;;;5.47;81.70
49979;BME280;35869;50.990;6.962;2023-03-14T19:00:12;100594.00;;;5.50;79.39
49979;BME280;35869;50.990;6.962;2023-03-14T19:05:12;100604.63;;;5.40;81.18
49979;BME280;35869;50.990;6.962;2023-03-14T19:10:13;100611.75;;;5.28;82.99
49979;BME280;35869;50.990;6.962;2023-03-14T19:15:14;100616.03;;;5.29;80.25
49979;BME280;35869;50.990;6.962;2023-03-14T19:20:14;100623.75;;;5.29;82.48
49979;BME280;35869;50.990;6.962;2023-03-14T19:25:14;100627.38;;;5.22;83.25
49979;BME280;35869;50.990;6.962;2023-03-14T19:30:15;100631.53;;;5.26;82.57
49979;BME280;35869;50.990;6.962;2023-03-14T19:35:15;100655.75;;;5.19;78.30
49979;BME280;35869;50.990;6.962;2023-03-14T19:40:16;100664.72;;;5.03;81.75
49979;BME280;35869;50.990;6.962;2023-03-14T19:45:17;100674.31;;;4.96;81.56
49979;BME280;35869;50.990;6.962;2023-03-14T19:50:17;100686.34;;;4.96;81.59
49979;BME280;35869;50.990;6.962;2023-03-14T19:55:17;100698.56;;;4.88;79.26
49979;BME280;35869;50.990;6.962;2023-03-14T20:00:19;100701.78;;;4.96;81.35
49979;BME280;35869;50.990;6.962;2023-03-14T20:05:21;100715.84;;;4.81;80.41
49979;BME280;35869;50.990;6.962;2023-03-14T20:10:22;100728.03;;;4.73;83.09
49979;BME280;35869;50.990;6.962;2023-03-14T20:15:22;100730.50;;;4.77;82.10
49979;BME280;35869;50.990;6.962;2023-03-14T20:20:23;100738.53;;;4.64;80.16
49979;BME280;35869;50.990;6.962;2023-03-14T20:25:24;100746.13;;;4.68;80.31
49979;BME280;35869;50.990;6.962;2023-03-14T20:30:24;100755.56;;;4.68;83.79
49979;BME280;35869;50.990;6.962;2023-03-14T20:35:25;100766.00;;;4.62;81.83
49979;BME280;35869;50.990;6.962;2023-03-14T20:40:26;100772.19;;;4.53;83.95
49979;BME280;35869;50.990;6.962;2023-03-14T20:45:26;100773.03;;;4.53;84.03
49979;BME280;35869;50.990;6.962;2023-03-14T20:50:26;100782.81;;;4.35;84.67
49979;BME280;35869;50.990;6.962;2023-03-14T20:55:26;100781.13;;;4.32;84.91
49979;BME280;35869;50.990;6.962;2023-03-14T21:00:27;100793.22;;;4.27;84.16
49979;BME280;35869;50.990;6.962;2023-03-14T21:05:27;100792.44;;;4.22;87.04
49979;BME280;35869;50.990;6.962;2023-03-14T21:10:27;100799.41;;;4.15;87.63
49979;BME280;35869;50.990;6.962;2023-03-14T21:15:28;100808.06;;;4.10;87.99
49979;BME280;35869;50.990;6.962;2023-03-14T21:20:28;100809.09;;;4.01;88.10
49979;BME280;35869;50.990;6.962;2023-03-14T21:25:29;100818.63;;;3.94;90.49
49979;BME280;35869;50.990;6.962;2023-03-14T21:30:31;100828.16;;;3.88;89.77
49979;BME280;35869;50.990;6.962;2023-03-14T21:35:31;100821.44;;;3.78;90.00
49979;BME280;35869;50.990;6.962;2023-03-14T21:40:32;100826.69;;;3.71;91.30
49979;BME280;35869;50.990;6.962;2023-03-14T21:45:32;100836.22;;;3.62;88.22
49979;BME280;35869;50.990;6.962;2023-03-14T21:50:32;100844.94;;;3.52;89.86
49979;BME280;35869;50.990;6.962;2023-03-14T21:55:32;100846.75;;;3.43;89.38
49979;BME280;35869;50.990;6.962;2023-03-14T22:00:33;100860.56;;;3.36;89.56
49979;BME280;35869;50.990;6.962;2023-03-14T22:05:33;100860.59;;;3.32;89.65
49979;BME280;35869;50.990;6.962;2023-03-14T22:10:33;100871.06;;;3.18;91.42
49979;BME280;35869;50.990;6.962;2023-03-14T22:15:33;100866.78;;;3.15;89.97
49979;BME280;35869;50.990;6.962;2023-03-14T22:20:34;100869.38;;;3.14;90.48
49979;BME280;35869;50.990;6.962;2023-03-14T22:25:34;100865.19;;;3.07;90.53
49979;BME280;35869;50.990;6.962;2023-03-14T22:30:35;100880.72;;;2.96;90.54
49979;BME280;35869;50.990;6.962;2023-03-14T22:35:35;100879.94;;;2.88;90.93
49979;BME280;35869;50.990;6.962;2023-03-14T22:40:36;100880.00;;;2.83;91.54
49979;BME280;35869;50.990;6.962;2023-03-14T22:45:37;100891.13;;;2.81;91.17
49979;BME280;35869;50.990;6.962;2023-03-14T22:50:38;100897.22;;;2.71;90.81
49979;BME280;35869;50.990;6.962;2023-03-14T22:55:38;100898.91;;;2.73;91.00
49979;BME280;35869;50.990;6.962;2023-03-14T23:00:39;100909.25;;;2.64;91.56
49979;BME280;35869;50.990;6.962;2023-03-14T23:05:39;100917.00;;;2.59;90.82
49979;BME280;35869;50.990;6.962;2023-03-14T23:10:39;100912.72;;;2.57;90.89
49979;BME280;35869;50.990;6.962;2023-03-14T23:15:41;100925.56;;;2.58;91.84
49979;BME280;35869;50.990;6.962;2023-03-14T23:20:41;100930.72;;;2.51;91.60
49979;BME280;35869;50.990;6.962;2023-03-14T23:25:42;100931.63;;;2.45;92.67
49979;BME280;35869;50.990;6.962;2023-03-14T23:30:42;100933.34;;;2.48;93.31
49979;BME280;35869;50.990;6.962;2023-03-14T23:35:42;100944.44;;;2.50;92.45
49979;BME280;35869;50.990;6.962;2023-03-14T23:40:42;100941.00;;;2.52;92.95
49979;BME280;35869;50.990;6.962;2023-03-14T23:45:47;100938.41;;;2.55;91.83
49979;BME280;35869;50.990;6.962;2023-03-14T23:50:47;100950.41;;;2.53;92.67
49979;BME280;35869;50.990;6.962;2023-03-14T23:55:48;100946.13;;;2.49;94.55
